sensor_id;sensor_type;location;lat;lon;timestamp;P1;durP1;ratioP1;P2;durP2;ratioP2
19863;SDS011;10094;48.820;9.226;2023-04-24T00:03:20;2.17;;;1.15;;
19863;SDS011;10094;48.820;9.226;2023-04-24T00:10:04;2.75;;;0.93;;
19863;SDS011;10094;48.820;9.226;2023-04-24T00:16:46;1.30;;;1.20;;
19863;SDS011;10094;48.820;9.226;2023-04-24T00:23:29;1.65;;;1.30;;
19863;SDS011;10094;48.820;9.226;2023-04-24T00:30:12;1.38;;;1.27;;
19863;SDS011;10094;48.820;9.226;2023-04-24T00:36:54;0.80;;;0.77;;
19863;SDS011;10094;48.820;9.226;2023-04-24T00:43:37;2.78;;;1.15;;
19863;SDS011;10094;48.820;9.226;2023-04-24T00:50:20;1.02;;;0.93;;
19863;SDS011;10094;48.820;9.226;2023-04-24T00:57:05;2.47;;;1.20;;
19863;SDS011;10094;48.820;9.226;2023-04-24T01:03:48;0.90;;;0.90;;
19863;SDS011;10094;48.820;9.226;2023-04-24T01:10:33;2.67;;;1.00;;
19863;SDS011;10094;48.820;9.226;2023-04-24T01:17:16;3.28;;;1.50;;
19863;SDS011;10094;48.820;9.226;2023-04-24T01:23:58;1.90;;;0.90;;
19863;SDS011;10094;48.820;9.226;2023-04-24T01:30:41;1.88;;;0.90;;
19863;SDS011;10094;48.820;9.226;2023-04-24T01:37:23;1.20;;;1.10;;
19863;SDS011;10094;48.820;9.226;2023-04-24T01:44:06;2.20;;;1.10;;
19863;SDS011;10094;48.820;9.226;2023-04-24T01:50:49;2.13;;;1.20;;
19863;SDS011;10094;48.820;9.226;2023-04-24T01:57:32;1.17;;;0.93;;
19863;SDS011;10094;48.820;9.226;2023-04-24T02:04:15;2.20;;;0.98;;
19863;SDS011;10094;48.820;9.226;2023-04-24T02:10:58;2.55;;;1.30;;
19863;SDS011;10094;48.820;9.226;2023-04-24T02:17:40;4.05;;;1.20;;
19863;SDS011;10094;48.820;9.226;2023-04-24T02:24:22;2.13;;;1.23;;
19863;SDS011;10094;48.820;9.226;2023-04-24T02:31:05;2.20;;;0.93;;
19863;SDS011;10094;48.820;9.226;2023-04-24T02:37:47;1.83;;;1.10;;
19863;SDS011;10094;48.820;9.226;2023-04-24T02:44:30;1.38;;;1.00;;
19863;SDS011;10094;48.820;9.226;2023-04-24T02:51:12;2.20;;;1.15;;
19863;SDS011;10094;48.820;9.226;2023-04-24T02:57:54;3.30;;;1.38;;
19863;SDS011;10094;48.820;9.226;2023-04-24T03:04:37;3.28;;;1.30;;
19863;SDS011;10094;48.820;9.226;2023-04-24T03:11:19;4.18;;;1.42;;
19863;SDS011;10094;48.820;9.226;2023-04-24T03:18:02;3.10;;;1.20;;
19863;SDS011;10094;48.820;9.226;2023-04-24T03:24:44;3.33;;;1.38;;
19863;SDS011;10094;48.820;9.226;2023-04-24T03:31:30;3.10;;;1.40;;
19863;SDS011;10094;48.820;9.226;2023-04-24T03:38:13;1.40;;;1.20;;
19863;SDS011;10094;48.820;9.226;2023-04-24T03:45:14;1.73;;;1.38;;
19863;SDS011;10094;48.820;9.226;2023-04-24T03:52:01;2.53;;;1.17;;
19863;SDS011;10094;48.820;9.226;2023-04-24T03:58:44;1.33;;;1.23;;
19863;SDS011;10094;48.820;9.226;2023-04-24T04:05:27;2.90;;;1.50;;
19863;SDS011;10094;48.820;9.226;2023-04-24T04:12:11;1.60;;;1.00;;
19863;SDS011;10094;48.820;9.226;2023-04-24T04:18:54;2.38;;;1.30;;
19863;SDS011;10094;48.820;9.226;2023-04-24T04:25:37;3.85;;;1.30;;
19863;SDS011;10094;48.820;9.226;2023-04-24T04:32:20;1.33;;;0.90;;
19863;SDS011;10094;48.820;9.226;2023-04-24T04:39:02;1.20;;;1.10;;
19863;SDS011;10094;48.820;9.226;2023-04-24T04:46:01;1.88;;;1.50;;
19863;SDS011;10094;48.820;9.226;2023-04-24T04:52:59;1.45;;;1.30;;
19863;SDS011;10094;48.820;9.226;2023-04-24T04:59:46;2.58;;;1.52;;
19863;SDS011;10094;48.820;9.226;2023-04-24T05:06:40;3.22;;;1.98;;
19863;SDS011;10094;48.820;9.226;2023-04-24T05:13:23;2.33;;;1.70;;
19863;SDS011;10094;48.820;9.226;2023-04-24T05:20:23;1.70;;;1.10;;
19863;SDS011;10094;48.820;9.226;2023-04-24T05:27:06;1.65;;;1.40;;
19863;SDS011;10094;48.820;9.226;2023-04-24T05:33:53;1.80;;;1.45;;
19863;SDS011;10094;48.820;9.226;2023-04-24T05:40:37;1.77;;;1.50;;
19863;SDS011;10094;48.820;9.226;2023-04-24T05:47:19;1.60;;;1.38;;
19863;SDS011;10094;48.820;9.226;2023-04-24T05:54:04;3.38;;;1.42;;
19863;SDS011;10094;48.820;9.226;2023-04-24T06:00:46;4.85;;;1.63;;
19863;SDS011;10094;48.820;9.226;2023-04-24T06:07:30;1.70;;;1.23;;
19863;SDS011;10094;48.820;9.226;2023-04-24T06:14:16;2.72;;;1.50;;
19863;SDS011;10094;48.820;9.226;2023-04-24T06:21:22;3.13;;;1.40;;
19863;SDS011;10094;48.820;9.226;2023-04-24T06:28:05;1.42;;;1.30;;
19863;SDS011;10094;48.820;9.226;2023-04-24T06:34:47;1.67;;;1.38;;
19863;SDS011;10094;48.820;9.226;2023-04-24T06:41:29;2.35;;;1.67;;
19863;SDS011;10094;48.820;9.226;2023-04-24T06:48:12;2.33;;;1.50;;
19863;SDS011;10094;48.820;9.226;2023-04-24T06:54:59;1.80;;;1.40;;
19863;SDS011;10094;48.820;9.226;2023-04-24T07:01:43;3.70;;;1.45;;
19863;SDS011;10094;48.820;9.226;2023-04-24T07:08:25;4.03;;;1.63;;
19863;SDS011;10094;48.820;9.226;2023-04-24T07:15:08;1.65;;;1.50;;
19863;SDS011;10094;48.820;9.226;2023-04-24T07:21:50;1.83;;;1.70;;
19863;SDS011;10094;48.820;9.226;2023-04-24T07:28:33;3.30;;;2.15;;
19863;SDS011;10094;48.820;9.226;2023-04-24T07:35:15;2.28;;;1.58;;
19863;SDS011;10094;48.820;9.226;2023-04-24T07:41:58;2.95;;;1.50;;
19863;SDS011;10094;48.820;9.226;2023-04-24T07:48:41;3.55;;;1.95;;
19863;SDS011;10094;48.820;9.226;2023-04-24T07:55:23;3.63;;;1.80;;
19863;SDS011;10094;48.820;9.226;2023-04-24T08:02:09;4.45;;;1.52;;
19863;SDS011;10094;48.820;9.226;2023-04-24T08:08:51;2.80;;;1.50;;
19863;SDS011;10094;48.820;9.226;2023-04-24T08:15:34;1.88;;;1.20;;
19863;SDS011;10094;48.820;9.226;2023-04-24T08:22:16;6.85;;;1.60;;
19863;SDS011;10094;48.820;9.226;2023-04-24T08:28:59;2.35;;;1.30;;
19863;SDS011;10094;48.820;9.226;2023-04-24T08:35:41;4.25;;;1.83;;
19863;SDS011;10094;48.820;9.226;2023-04-24T08:42:23;3.05;;;1.55;;
19863;SDS011;10094;48.820;9.226;2023-04-24T08:49:08;3.33;;;1.80;;
19863;SDS011;10094;48.820;9.226;2023-04-24T08:55:50;2.08;;;1.30;;
19863;SDS011;10094;48.820;9.226;2023-04-24T09:02:35;3.15;;;1.50;;
19863;SDS011;10094;48.820;9.226;2023-04-24T09:09:18;1.83;;;1.42;;
19863;SDS011;10094;48.820;9.226;2023-04-24T09:16:00;6.85;;;1.92;;
19863;SDS011;10094;48.820;9.226;2023-04-24T09:22:43;2.03;;;1.60;;
19863;SDS011;10094;48.820;9.226;2023-04-24T09:29:27;2.00;;;1.45;;
19863;SDS011;10094;48.820;9.226;2023-04-24T09:36:10;1.63;;;1.40;;
19863;SDS011;10094;48.820;9.226;2023-04-24T09:42:56;2.20;;;1.75;;
19863;SDS011;10094;48.820;9.226;2023-04-24T09:49:42;1.50;;;1.40;;
19863;SDS011;10094;48.820;9.226;2023-04-24T09:56:26;4.32;;;1.80;;
19863;SDS011;10094;48.820;9.226;2023-04-24T10:03:08;2.08;;;1.50;;
19863;SDS011;10094;48.820;9.226;2023-04-24T10:09:51;1.83;;;1.27;;
19863;SDS011;10094;48.820;9.226;2023-04-24T10:16:34;2.78;;;1.42;;
19863;SDS011;10094;48.820;9.226;2023-04-24T10:23:16;2.25;;;1.95;;
19863;SDS011;10094;48.820;9.226;2023-04-24T10:30:01;1.67;;;1.20;;
19863;SDS011;10094;48.820;9.226;2023-04-24T10:36:53;4.50;;;1.50;;
19863;SDS011;10094;48.820;9.226;2023-04-24T10:43:39;1.95;;;1.33;;
19863;SDS011;10094;48.820;9.226;2023-04-24T10:50:22;2.60;;;1.50;;
19863;SDS011;10094;48.820;9.226;2023-04-24T11:04:03;2.00;;;1.60;;
19863;SDS011;10094;48.820;9.226;2023-04-24T11:10:47;3.83;;;1.48;;
19863;SDS011;10094;48.820;9.226;2023-04-24T11:17:40;2.03;;;1.70;;
19863;SDS011;10094;48.820;9.226;2023-04-24T11:31:33;2.40;;;1.35;;
19863;SDS011;10094;48.820;9.226;2023-04-24T11:38:18;4.03;;;2.00;;
19863;SDS011;10094;48.820;9.226;2023-04-24T11:45:09;1.50;;;1.40;;
19863;SDS011;10094;48.820;9.226;2023-04-24T11:51:57;3.95;;;1.75;;
19863;SDS011;10094;48.820;9.226;2023-04-24T11:58:42;3.13;;;1.63;;
19863;SDS011;10094;48.820;9.226;2023-04-24T12:05:25;2.70;;;1.58;;
19863;SDS011;10094;48.820;9.226;2023-04-24T12:12:10;3.08;;;1.48;;
19863;SDS011;10094;48.820;9.226;2023-04-24T12:18:54;3.10;;;1.50;;
19863;SDS011;10094;48.820;9.226;2023-04-24T12:25:38;3.75;;;1.73;;
19863;SDS011;10094;48.820;9.226;2023-04-24T12:32:20;2.40;;;1.85;;
19863;SDS011;10094;48.820;9.226;2023-04-24T12:39:03;3.83;;;1.55;;
19863;SDS011;10094;48.820;9.226;2023-04-24T12:45:57;2.42;;;1.50;;
19863;SDS011;10094;48.820;9.226;2023-04-24T12:52:40;6.57;;;1.85;;
19863;SDS011;10094;48.820;9.226;2023-04-24T12:59:23;3.03;;;1.80;;
19863;SDS011;10094;48.820;9.226;2023-04-24T13:06:06;2.10;;;1.58;;
19863;SDS011;10094;48.820;9.226;2023-04-24T13:12:48;1.73;;;1.63;;
19863;SDS011;10094;48.820;9.226;2023-04-24T13:19:35;2.30;;;1.60;;
19863;SDS011;10094;48.820;9.226;2023-04-24T13:26:19;3.15;;;1.77;;
19863;SDS011;10094;48.820;9.226;2023-04-24T13:33:01;1.77;;;1.63;;
19863;SDS011;10094;48.820;9.226;2023-04-24T13:39:44;3.72;;;1.73;;
19863;SDS011;10094;48.820;9.226;2023-04-24T13:46:26;5.13;;;2.53;;
19863;SDS011;10094;48.820;9.226;2023-04-24T13:53:09;3.13;;;1.77;;
19863;SDS011;10094;48.820;9.226;2023-04-24T13:59:52;2.03;;;1.58;;
19863;SDS011;10094;48.820;9.226;2023-04-24T14:06:34;2.38;;;1.42;;
19863;SDS011;10094;48.820;9.226;2023-04-24T14:13:16;5.25;;;1.70;;
19863;SDS011;10094;48.820;9.226;2023-04-24T14:19:59;2.78;;;1.80;;
19863;SDS011;10094;48.820;9.226;2023-04-24T14:26:43;2.55;;;1.90;;
19863;SDS011;10094;48.820;9.226;2023-04-24T14:33:26;3.97;;;1.88;;
19863;SDS011;10094;48.820;9.226;2023-04-24T14:40:08;4.55;;;1.92;;
19863;SDS011;10094;48.820;9.226;2023-04-24T14:47:11;4.80;;;1.55;;
19863;SDS011;10094;48.820;9.226;2023-04-24T14:53:54;2.30;;;1.73;;
19863;SDS011;10094;48.820;9.226;2023-04-24T15:00:37;1.60;;;1.50;;
19863;SDS011;10094;48.820;9.226;2023-04-24T15:07:20;1.88;;;1.55;;
19863;SDS011;10094;48.820;9.226;2023-04-24T15:14:02;2.10;;;1.90;;
19863;SDS011;10094;48.820;9.226;2023-04-24T15:20:44;2.85;;;1.50;;
19863;SDS011;10094;48.820;9.226;2023-04-24T15:27:27;4.53;;;1.88;;
19863;SDS011;10094;48.820;9.226;2023-04-24T15:34:24;2.83;;;2.00;;
19863;SDS011;10094;48.820;9.226;2023-04-24T15:41:07;2.15;;;1.95;;
19863;SDS011;10094;48.820;9.226;2023-04-24T15:47:49;2.70;;;2.28;;
19863;SDS011;10094;48.820;9.226;2023-04-24T15:54:32;1.80;;;1.70;;
19863;SDS011;10094;48.820;9.226;2023-04-24T16:01:14;2.15;;;1.70;;
19863;SDS011;10094;48.820;9.226;2023-04-24T16:07:57;2.67;;;1.98;;
19863;SDS011;10094;48.820;9.226;2023-04-24T16:14:39;1.92;;;1.70;;
19863;SDS011;10094;48.820;9.226;2023-04-24T16:21:22;3.63;;;1.75;;
19863;SDS011;10094;48.820;9.226;2023-04-24T16:28:05;1.92;;;1.60;;
19863;SDS011;10094;48.820;9.226;2023-04-24T16:34:47;4.50;;;2.13;;
19863;SDS011;10094;48.820;9.226;2023-04-24T16:41:30;3.17;;;2.03;;
19863;SDS011;10094;48.820;9.226;2023-04-24T16:48:12;2.15;;;1.80;;
19863;SDS011;10094;48.820;9.226;2023-04-24T16:54:54;2.38;;;1.70;;
19863;SDS011;10094;48.820;9.226;2023-04-24T17:01:37;2.28;;;1.65;;
19863;SDS011;10094;48.820;9.226;2023-04-24T17:08:19;4.72;;;2.00;;
19863;SDS011;10094;48.820;9.226;2023-04-24T17:15:03;3.60;;;2.30;;
19863;SDS011;10094;48.820;9.226;2023-04-24T17:21:46;1.80;;;1.58;;
19863;SDS011;10094;48.820;9.226;2023-04-24T17:28:29;2.70;;;1.83;;
19863;SDS011;10094;48.820;9.226;2023-04-24T17:35:13;2.72;;;1.45;;
19863;SDS011;10094;48.820;9.226;2023-04-24T17:41:55;4.05;;;2.08;;
19863;SDS011;10094;48.820;9.226;2023-04-24T17:48:38;2.67;;;1.73;;
19863;SDS011;10094;48.820;9.226;2023-04-24T17:55:21;2.45;;;1.67;;
19863;SDS011;10094;48.820;9.226;2023-04-24T18:02:03;2.72;;;1.55;;
19863;SDS011;10094;48.820;9.226;2023-04-24T18:08:46;1.50;;;1.40;;
19863;SDS011;10094;48.820;9.226;2023-04-24T18:15:29;2.63;;;2.03;;
19863;SDS011;10094;48.820;9.226;2023-04-24T18:22:11;2.03;;;1.83;;
19863;SDS011;10094;48.820;9.226;2023-04-24T18:28:54;2.90;;;2.10;;
19863;SDS011;10094;48.820;9.226;2023-04-24T18:35:36;2.35;;;1.88;;
19863;SDS011;10094;48.820;9.226;2023-04-24T18:42:19;1.98;;;1.70;;
19863;SDS011;10094;48.820;9.226;2023-04-24T18:49:01;4.05;;;1.80;;
19863;SDS011;10094;48.820;9.226;2023-04-24T18:55:44;2.08;;;1.88;;
19863;SDS011;10094;48.820;9.226;2023-04-24T19:02:27;1.98;;;1.77;;
19863;SDS011;10094;48.820;9.226;2023-04-24T19:09:09;2.15;;;1.70;;
19863;SDS011;10094;48.820;9.226;2023-04-24T19:15:52;2.35;;;1.85;;
19863;SDS011;10094;48.820;9.226;2023-04-24T19:22:34;3.83;;;2.03;;
19863;SDS011;10094;48.820;9.226;2023-04-24T19:29:17;2.58;;;2.00;;
19863;SDS011;10094;48.820;9.226;2023-04-24T19:35:59;2.00;;;1.80;;
19863;SDS011;10094;48.820;9.226;2023-04-24T19:42:42;2.88;;;2.00;;
19863;SDS011;10094;48.820;9.226;2023-04-24T19:49:25;3.95;;;1.98;;
19863;SDS011;10094;48.820;9.226;2023-04-24T19:56:08;2.60;;;1.65;;
19863;SDS011;10094;48.820;9.226;2023-04-24T20:02:50;2.60;;;1.75;;
19863;SDS011;10094;48.820;9.226;2023-04-24T20:09:33;5.15;;;2.92;;
19863;SDS011;10094;48.820;9.226;2023-04-24T20:16:15;4.03;;;2.78;;
19863;SDS011;10094;48.820;9.226;2023-04-24T20:22:58;4.22;;;2.53;;
19863;SDS011;10094;48.820;9.226;2023-04-24T20:29:41;4.30;;;2.30;;
19863;SDS011;10094;48.820;9.226;2023-04-24T20:36:23;3.72;;;2.40;;
19863;SDS011;10094;48.820;9.226;2023-04-24T20:43:06;3.33;;;2.17;;
19863;SDS011;10094;48.820;9.226;2023-04-24T20:49:49;2.92;;;1.90;;
19863;SDS011;10094;48.820;9.226;2023-04-24T20:56:31;3.05;;;1.95;;
19863;SDS011;10094;48.820;9.226;2023-04-24T21:03:14;3.42;;;2.63;;
19863;SDS011;10094;48.820;9.226;2023-04-24T21:09:56;2.35;;;1.95;;
19863;SDS011;10094;48.820;9.226;2023-04-24T21:16:39;4.72;;;2.22;;
19863;SDS011;10094;48.820;9.226;2023-04-24T21:23:21;5.03;;;2.60;;
19863;SDS011;10094;48.820;9.226;2023-04-24T21:30:04;3.75;;;2.47;;
19863;SDS011;10094;48.820;9.226;2023-04-24T21:36:47;6.50;;;2.70;;
19863;SDS011;10094;48.820;9.226;2023-04-24T21:43:30;8.40;;;2.70;;
19863;SDS011;10094;48.820;9.226;2023-04-24T21:50:31;4.68;;;2.63;;
19863;SDS011;10094;48.820;9.226;2023-04-24T21:57:13;3.85;;;2.70;;
19863;SDS011;10094;48.820;9.226;2023-04-24T22:03:56;3.35;;;2.60;;
19863;SDS011;10094;48.820;9.226;2023-04-24T22:10:39;3.03;;;2.67;;
19863;SDS011;10094;48.820;9.226;2023-04-24T22:17:21;3.50;;;2.75;;
19863;SDS011;10094;48.820;9.226;2023-04-24T22:24:04;3.95;;;2.58;;
19863;SDS011;10094;48.820;9.226;2023-04-24T22:30:47;3.50;;;2.90;;
19863;SDS011;10094;48.820;9.226;2023-04-24T22:37:30;3.92;;;2.90;;
19863;SDS011;10094;48.820;9.226;2023-04-24T22:44:12;2.60;;;2.22;;
19863;SDS011;10094;48.820;9.226;2023-04-24T22:50:54;3.47;;;2.47;;
19863;SDS011;10094;48.820;9.226;2023-04-24T22:57:37;3.33;;;2.88;;
19863;SDS011;10094;48.820;9.226;2023-04-24T23:04:19;3.17;;;2.70;;
19863;SDS011;10094;48.820;9.226;2023-04-24T23:11:03;5.28;;;3.08;;
19863;SDS011;10094;48.820;9.226;2023-04-24T23:17:45;5.50;;;2.90;;
19863;SDS011;10094;48.820;9.226;2023-04-24T23:24:27;6.80;;;2.83;;
19863;SDS011;10094;48.820;9.226;2023-04-24T23:31:10;3.42;;;2.50;;
19863;SDS011;10094;48.820;9.226;2023-04-24T23:37:53;5.32;;;2.83;;
19863;SDS011;10094;48.820;9.226;2023-04-24T23:44:36;3.22;;;2.03;;
19863;SDS011;10094;48.820;9.226;2023-04-24T23:51:19;2.35;;;1.70;;
19863;SDS011;10094;48.820;9.226;2023-04-24T23:58:01;2.92;;;1.60;;
